sensor_id;sensor_type;location;lat;lon;timestamp;P1;durP1;ratioP1;P2;durP2;ratioP2
71290;SDS011;59073;51.994;4.448;2023-02-28T00:00:24;2.15;;;2.15;;
71290;SDS011;59073;51.994;4.448;2023-02-28T00:02:50;1.99;;;1.99;;
71290;SDS011;59073;51.994;4.448;2023-02-28T00:05:17;2.22;;;2.22;;
71290;SDS011;59073;51.994;4.448;2023-02-28T00:07:45;2.37;;;2.36;;
71290;SDS011;59073;51.994;4.448;2023-02-28T00:10:12;2.33;;;2.33;;
71290;SDS011;59073;51.994;4.448;2023-02-28T00:12:40;2.12;;;2.10;;
71290;SDS011;59073;51.994;4.448;2023-02-28T00:15:10;2.14;;;2.12;;
71290;SDS011;59073;51.994;4.448;2023-02-28T00:17:36;1.91;;;1.89;;
71290;SDS011;59073;51.994;4.448;2023-02-28T00:20:03;2.19;;;2.18;;
71290;SDS011;59073;51.994;4.448;2023-02-28T00:22:29;2.30;;;2.27;;
71290;SDS011;59073;51.994;4.448;2023-02-28T00:24:56;2.25;;;2.22;;
71290;SDS011;59073;51.994;4.448;2023-02-28T00:27:21;2.13;;;2.12;;
71290;SDS011;59073;51.994;4.448;2023-02-28T00:29:47;2.38;;;2.36;;
71290;SDS011;59073;51.994;4.448;2023-02-28T00:32:12;2.38;;;2.36;;
71290;SDS011;59073;51.994;4.448;2023-02-28T00:34:38;2.33;;;2.33;;
71290;SDS011;59073;51.994;4.448;2023-02-28T00:37:04;2.04;;;2.02;;
71290;SDS011;59073;51.994;4.448;2023-02-28T00:39:31;2.12;;;2.11;;
71290;SDS011;59073;51.994;4.448;2023-02-28T00:41:57;2.18;;;2.17;;
71290;SDS011;59073;51.994;4.448;2023-02-28T00:44:23;2.32;;;2.31;;
71290;SDS011;59073;51.994;4.448;2023-02-28T00:46:48;2.01;;;2.00;;
71290;SDS011;59073;51.994;4.448;2023-02-28T00:49:14;2.12;;;2.11;;
71290;SDS011;59073;51.994;4.448;2023-02-28T00:51:39;2.01;;;2.00;;
71290;SDS011;59073;51.994;4.448;2023-02-28T00:54:04;2.05;;;2.03;;
71290;SDS011;59073;51.994;4.448;2023-02-28T00:56:30;2.05;;;2.04;;
71290;SDS011;59073;51.994;4.448;2023-02-28T00:58:55;1.97;;;1.96;;
71290;SDS011;59073;51.994;4.448;2023-02-28T01:01:21;2.29;;;2.27;;
71290;SDS011;59073;51.994;4.448;2023-02-28T01:03:46;2.27;;;2.26;;
71290;SDS011;59073;51.994;4.448;2023-02-28T01:06:12;1.94;;;1.94;;
71290;SDS011;59073;51.994;4.448;2023-02-28T01:08:37;2.16;;;2.15;;
71290;SDS011;59073;51.994;4.448;2023-02-28T01:11:12;2.30;;;2.30;;
71290;SDS011;59073;51.994;4.448;2023-02-28T01:13:41;1.95;;;1.93;;
71290;SDS011;59073;51.994;4.448;2023-02-28T01:16:08;2.14;;;2.11;;
71290;SDS011;59073;51.994;4.448;2023-02-28T01:18:34;1.91;;;1.89;;
71290;SDS011;59073;51.994;4.448;2023-02-28T01:21:04;2.18;;;2.18;;
71290;SDS011;59073;51.994;4.448;2023-02-28T01:23:31;2.44;;;2.43;;
71290;SDS011;59073;51.994;4.448;2023-02-28T01:26:02;2.10;;;2.09;;
71290;SDS011;59073;51.994;4.448;2023-02-28T01:28:29;2.16;;;2.15;;
71290;SDS011;59073;51.994;4.448;2023-02-28T01:30:54;2.33;;;2.33;;
71290;SDS011;59073;51.994;4.448;2023-02-28T01:33:20;2.21;;;2.20;;
71290;SDS011;59073;51.994;4.448;2023-02-28T01:35:45;2.10;;;2.09;;
71290;SDS011;59073;51.994;4.448;2023-02-28T01:38:11;2.15;;;2.15;;
71290;SDS011;59073;51.994;4.448;2023-02-28T01:40:36;2.19;;;2.18;;
71290;SDS011;59073;51.994;4.448;2023-02-28T01:43:02;2.15;;;2.15;;
71290;SDS011;59073;51.994;4.448;2023-02-28T01:45:28;2.16;;;2.16;;
71290;SDS011;59073;51.994;4.448;2023-02-28T01:47:57;2.25;;;2.25;;
71290;SDS011;59073;51.994;4.448;2023-02-28T01:50:31;2.30;;;2.30;;
71290;SDS011;59073;51.994;4.448;2023-02-28T01:53:04;2.79;;;2.79;;
71290;SDS011;59073;51.994;4.448;2023-02-28T01:55:34;2.32;;;2.32;;
71290;SDS011;59073;51.994;4.448;2023-02-28T01:58:02;2.49;;;2.48;;
71290;SDS011;59073;51.994;4.448;2023-02-28T02:00:31;2.47;;;2.46;;
71290;SDS011;59073;51.994;4.448;2023-02-28T02:02:57;2.60;;;2.58;;
71290;SDS011;59073;51.994;4.448;2023-02-28T02:05:26;2.52;;;2.51;;
71290;SDS011;59073;51.994;4.448;2023-02-28T02:07:56;2.57;;;2.56;;
71290;SDS011;59073;51.994;4.448;2023-02-28T02:10:32;2.77;;;2.75;;
71290;SDS011;59073;51.994;4.448;2023-02-28T02:13:12;2.51;;;2.50;;
71290;SDS011;59073;51.994;4.448;2023-02-28T02:15:46;2.94;;;2.93;;
71290;SDS011;59073;51.994;4.448;2023-02-28T02:18:31;2.81;;;2.81;;
71290;SDS011;59073;51.994;4.448;2023-02-28T02:27:26;3.32;;;3.32;;
71290;SDS011;59073;51.994;4.448;2023-02-28T02:43:41;3.32;;;3.32;;
71290;SDS011;59073;51.994;4.448;2023-02-28T02:46:38;3.42;;;3.42;;
71290;SDS011;59073;51.994;4.448;2023-02-28T02:49:09;3.38;;;3.38;;
71290;SDS011;59073;51.994;4.448;2023-02-28T02:51:41;3.39;;;3.39;;
71290;SDS011;59073;51.994;4.448;2023-02-28T02:54:17;3.18;;;3.18;;
71290;SDS011;59073;51.994;4.448;2023-02-28T02:56:48;3.27;;;3.27;;
71290;SDS011;59073;51.994;4.448;2023-02-28T02:59:17;3.64;;;3.64;;
71290;SDS011;59073;51.994;4.448;2023-02-28T03:01:49;3.50;;;3.48;;
71290;SDS011;59073;51.994;4.448;2023-02-28T03:04:20;3.59;;;3.58;;
71290;SDS011;59073;51.994;4.448;2023-02-28T03:06:50;3.41;;;3.40;;
71290;SDS011;59073;51.994;4.448;2023-02-28T03:09:23;3.12;;;3.12;;
71290;SDS011;59073;51.994;4.448;2023-02-28T03:11:50;3.47;;;3.46;;
71290;SDS011;59073;51.994;4.448;2023-02-28T03:14:25;3.27;;;3.26;;
71290;SDS011;59073;51.994;4.448;2023-02-28T03:20:02;3.39;;;3.39;;
71290;SDS011;59073;51.994;4.448;2023-02-28T03:27:11;3.06;;;3.06;;
71290;SDS011;59073;51.994;4.448;2023-02-28T03:30:10;3.58;;;3.58;;
71290;SDS011;59073;51.994;4.448;2023-02-28T03:32:57;3.31;;;3.30;;
71290;SDS011;59073;51.994;4.448;2023-02-28T03:35:34;3.55;;;3.54;;
71290;SDS011;59073;51.994;4.448;2023-02-28T03:38:09;3.14;;;3.14;;
71290;SDS011;59073;51.994;4.448;2023-02-28T03:40:56;3.71;;;3.71;;
71290;SDS011;59073;51.994;4.448;2023-02-28T03:43:37;3.55;;;3.54;;
71290;SDS011;59073;51.994;4.448;2023-02-28T03:46:09;3.76;;;3.74;;
71290;SDS011;59073;51.994;4.448;2023-02-28T03:48:45;3.71;;;3.65;;
71290;SDS011;59073;51.994;4.448;2023-02-28T03:51:32;3.61;;;3.58;;
71290;SDS011;59073;51.994;4.448;2023-02-28T03:54:03;3.56;;;3.56;;
71290;SDS011;59073;51.994;4.448;2023-02-28T03:56:36;3.87;;;3.85;;
71290;SDS011;59073;51.994;4.448;2023-02-28T03:59:14;4.03;;;4.03;;
71290;SDS011;59073;51.994;4.448;2023-02-28T04:02:01;3.81;;;3.81;;
71290;SDS011;59073;51.994;4.448;2023-02-28T04:04:27;3.61;;;3.61;;
71290;SDS011;59073;51.994;4.448;2023-02-28T04:07:00;3.95;;;3.95;;
71290;SDS011;59073;51.994;4.448;2023-02-28T04:09:29;3.80;;;3.80;;
71290;SDS011;59073;51.994;4.448;2023-02-28T04:11:54;4.24;;;4.24;;
71290;SDS011;59073;51.994;4.448;2023-02-28T04:14:23;4.30;;;4.30;;
71290;SDS011;59073;51.994;4.448;2023-02-28T04:16:49;3.92;;;3.92;;
71290;SDS011;59073;51.994;4.448;2023-02-28T04:19:16;4.10;;;4.10;;
71290;SDS011;59073;51.994;4.448;2023-02-28T04:21:43;4.00;;;4.00;;
71290;SDS011;59073;51.994;4.448;2023-02-28T04:24:12;4.33;;;4.33;;
71290;SDS011;59073;51.994;4.448;2023-02-28T04:26:40;4.28;;;4.27;;
71290;SDS011;59073;51.994;4.448;2023-02-28T04:29:18;4.72;;;4.70;;
71290;SDS011;59073;51.994;4.448;2023-02-28T04:31:54;4.03;;;4.00;;
71290;SDS011;59073;51.994;4.448;2023-02-28T04:34:23;3.98;;;3.98;;
71290;SDS011;59073;51.994;4.448;2023-02-28T04:36:49;4.26;;;4.26;;
71290;SDS011;59073;51.994;4.448;2023-02-28T04:39:18;4.32;;;4.32;;
71290;SDS011;59073;51.994;4.448;2023-02-28T04:41:47;4.46;;;4.46;;
71290;SDS011;59073;51.994;4.448;2023-02-28T04:44:12;4.17;;;4.17;;
71290;SDS011;59073;51.994;4.448;2023-02-28T04:46:38;4.45;;;4.45;;
71290;SDS011;59073;51.994;4.448;2023-02-28T04:49:04;4.23;;;4.23;;
71290;SDS011;59073;51.994;4.448;2023-02-28T04:51:29;4.04;;;4.04;;
71290;SDS011;59073;51.994;4.448;2023-02-28T04:53:55;4.29;;;4.29;;
71290;SDS011;59073;51.994;4.448;2023-02-28T04:56:21;4.40;;;4.40;;
71290;SDS011;59073;51.994;4.448;2023-02-28T04:58:48;3.88;;;3.88;;
71290;SDS011;59073;51.994;4.448;2023-02-28T05:01:16;4.10;;;4.10;;
71290;SDS011;59073;51.994;4.448;2023-02-28T05:03:59;4.13;;;4.13;;
71290;SDS011;59073;51.994;4.448;2023-02-28T05:06:27;3.96;;;3.96;;
71290;SDS011;59073;51.994;4.448;2023-02-28T05:08:55;3.81;;;3.81;;
71290;SDS011;59073;51.994;4.448;2023-02-28T05:13:51;3.79;;;3.79;;
71290;SDS011;59073;51.994;4.448;2023-02-28T05:16:18;3.99;;;3.99;;
71290;SDS011;59073;51.994;4.448;2023-02-28T05:18:44;3.85;;;3.85;;
71290;SDS011;59073;51.994;4.448;2023-02-28T05:21:30;4.69;;;4.69;;
71290;SDS011;59073;51.994;4.448;2023-02-28T05:23:58;4.78;;;4.78;;
71290;SDS011;59073;51.994;4.448;2023-02-28T05:26:29;5.00;;;5.00;;
71290;SDS011;59073;51.994;4.448;2023-02-28T05:28:55;5.11;;;5.11;;
71290;SDS011;59073;51.994;4.448;2023-02-28T05:31:21;5.34;;;5.34;;
71290;SDS011;59073;51.994;4.448;2023-02-28T05:33:48;5.28;;;5.27;;
71290;SDS011;59073;51.994;4.448;2023-02-28T05:36:16;4.52;;;4.47;;
71290;SDS011;59073;51.994;4.448;2023-02-28T05:38:45;5.41;;;5.38;;
71290;SDS011;59073;51.994;4.448;2023-02-28T05:41:15;5.75;;;5.69;;
71290;SDS011;59073;51.994;4.448;2023-02-28T05:44:15;5.05;;;5.00;;
71290;SDS011;59073;51.994;4.448;2023-02-28T05:46:34;5.48;;;5.48;;
71290;SDS011;59073;51.994;4.448;2023-02-28T05:48:59;6.14;;;6.14;;
71290;SDS011;59073;51.994;4.448;2023-02-28T05:51:25;6.03;;;6.02;;
71290;SDS011;59073;51.994;4.448;2023-02-28T05:54:09;5.90;;;5.88;;
71290;SDS011;59073;51.994;4.448;2023-02-28T05:56:49;6.56;;;6.53;;
71290;SDS011;59073;51.994;4.448;2023-02-28T05:59:17;6.19;;;6.18;;
71290;SDS011;59073;51.994;4.448;2023-02-28T06:02:05;6.26;;;6.26;;
71290;SDS011;59073;51.994;4.448;2023-02-28T06:04:35;6.12;;;6.11;;
71290;SDS011;59073;51.994;4.448;2023-02-28T06:07:04;6.02;;;6.02;;
71290;SDS011;59073;51.994;4.448;2023-02-28T06:09:35;6.32;;;6.32;;
71290;SDS011;59073;51.994;4.448;2023-02-28T06:12:04;5.83;;;5.83;;
71290;SDS011;59073;51.994;4.448;2023-02-28T06:18:17;5.84;;;5.83;;
71290;SDS011;59073;51.994;4.448;2023-02-28T06:20:53;6.00;;;5.94;;
71290;SDS011;59073;51.994;4.448;2023-02-28T06:23:54;5.87;;;5.87;;
71290;SDS011;59073;51.994;4.448;2023-02-28T06:26:35;5.84;;;5.77;;
71290;SDS011;59073;51.994;4.448;2023-02-28T06:29:01;5.29;;;5.29;;
71290;SDS011;59073;51.994;4.448;2023-02-28T06:31:26;5.42;;;5.42;;
71290;SDS011;59073;51.994;4.448;2023-02-28T06:33:54;5.72;;;5.71;;
71290;SDS011;59073;51.994;4.448;2023-02-28T06:36:22;5.48;;;5.48;;
71290;SDS011;59073;51.994;4.448;2023-02-28T06:41:37;4.90;;;4.90;;
71290;SDS011;59073;51.994;4.448;2023-02-28T06:44:04;4.77;;;4.77;;
71290;SDS011;59073;51.994;4.448;2023-02-28T06:46:30;4.06;;;4.06;;
71290;SDS011;59073;51.994;4.448;2023-02-28T06:48:57;4.52;;;4.52;;
71290;SDS011;59073;51.994;4.448;2023-02-28T06:51:22;4.06;;;4.06;;
71290;SDS011;59073;51.994;4.448;2023-02-28T06:54:00;3.40;;;3.40;;
71290;SDS011;59073;51.994;4.448;2023-02-28T07:00:52;3.07;;;3.07;;
71290;SDS011;59073;51.994;4.448;2023-02-28T07:06:35;3.08;;;3.08;;
71290;SDS011;59073;51.994;4.448;2023-02-28T07:09:04;3.28;;;3.28;;
71290;SDS011;59073;51.994;4.448;2023-02-28T07:11:30;3.56;;;3.56;;
71290;SDS011;59073;51.994;4.448;2023-02-28T07:14:04;3.66;;;3.66;;
71290;SDS011;59073;51.994;4.448;2023-02-28T07:16:41;3.94;;;3.94;;
71290;SDS011;59073;51.994;4.448;2023-02-28T07:19:12;3.91;;;3.91;;
71290;SDS011;59073;51.994;4.448;2023-02-28T07:21:43;3.87;;;3.87;;
71290;SDS011;59073;51.994;4.448;2023-02-28T07:24:10;4.27;;;4.26;;
71290;SDS011;59073;51.994;4.448;2023-02-28T07:26:45;4.39;;;4.35;;
71290;SDS011;59073;51.994;4.448;2023-02-28T07:29:23;4.29;;;4.26;;
71290;SDS011;59073;51.994;4.448;2023-02-28T07:32:11;4.65;;;4.57;;
71290;SDS011;59073;51.994;4.448;2023-02-28T07:35:35;4.53;;;4.50;;
71290;SDS011;59073;51.994;4.448;2023-02-28T07:38:17;4.58;;;4.56;;
71290;SDS011;59073;51.994;4.448;2023-02-28T07:40:42;4.51;;;4.51;;
71290;SDS011;59073;51.994;4.448;2023-02-28T07:43:18;4.48;;;4.48;;
71290;SDS011;59073;51.994;4.448;2023-02-28T07:45:43;4.15;;;4.14;;
71290;SDS011;59073;51.994;4.448;2023-02-28T07:48:11;4.26;;;4.26;;
71290;SDS011;59073;51.994;4.448;2023-02-28T07:50:37;4.35;;;4.34;;
71290;SDS011;59073;51.994;4.448;2023-02-28T07:53:02;3.89;;;3.89;;
71290;SDS011;59073;51.994;4.448;2023-02-28T07:55:31;3.61;;;3.61;;
71290;SDS011;59073;51.994;4.448;2023-02-28T07:57:57;3.98;;;3.98;;
71290;SDS011;59073;51.994;4.448;2023-02-28T08:00:23;3.93;;;3.93;;
71290;SDS011;59073;51.994;4.448;2023-02-28T08:02:49;4.03;;;4.03;;
71290;SDS011;59073;51.994;4.448;2023-02-28T08:05:14;4.14;;;4.14;;
71290;SDS011;59073;51.994;4.448;2023-02-28T08:07:40;4.07;;;4.07;;
71290;SDS011;59073;51.994;4.448;2023-02-28T08:10:06;3.97;;;3.97;;
71290;SDS011;59073;51.994;4.448;2023-02-28T08:12:33;4.14;;;4.14;;
71290;SDS011;59073;51.994;4.448;2023-02-28T08:14:59;4.35;;;4.31;;
71290;SDS011;59073;51.994;4.448;2023-02-28T08:17:24;4.24;;;4.24;;
71290;SDS011;59073;51.994;4.448;2023-02-28T08:19:50;4.28;;;4.28;;
71290;SDS011;59073;51.994;4.448;2023-02-28T08:22:15;4.39;;;4.39;;
71290;SDS011;59073;51.994;4.448;2023-02-28T08:24:41;4.03;;;4.03;;
71290;SDS011;59073;51.994;4.448;2023-02-28T08:27:08;4.25;;;4.25;;
71290;SDS011;59073;51.994;4.448;2023-02-28T08:29:33;3.95;;;3.95;;
71290;SDS011;59073;51.994;4.448;2023-02-28T08:31:59;4.46;;;4.46;;
71290;SDS011;59073;51.994;4.448;2023-02-28T08:34:24;4.23;;;4.23;;
71290;SDS011;59073;51.994;4.448;2023-02-28T08:36:49;4.41;;;4.41;;
71290;SDS011;59073;51.994;4.448;2023-02-28T08:39:15;4.55;;;4.55;;
71290;SDS011;59073;51.994;4.448;2023-02-28T08:41:41;4.11;;;4.11;;
71290;SDS011;59073;51.994;4.448;2023-02-28T08:44:07;4.19;;;4.19;;
71290;SDS011;59073;51.994;4.448;2023-02-28T08:46:33;3.97;;;3.97;;
71290;SDS011;59073;51.994;4.448;2023-02-28T08:48:58;3.52;;;3.52;;
71290;SDS011;59073;51.994;4.448;2023-02-28T08:51:25;3.73;;;3.73;;
71290;SDS011;59073;51.994;4.448;2023-02-28T08:53:52;3.51;;;3.51;;
71290;SDS011;59073;51.994;4.448;2023-02-28T08:56:19;4.12;;;4.12;;
71290;SDS011;59073;51.994;4.448;2023-02-28T08:58:46;4.71;;;4.71;;
71290;SDS011;59073;51.994;4.448;2023-02-28T09:01:21;4.03;;;4.03;;
71290;SDS011;59073;51.994;4.448;2023-02-28T09:03:48;4.04;;;4.04;;
71290;SDS011;59073;51.994;4.448;2023-02-28T09:06:16;3.74;;;3.74;;
71290;SDS011;59073;51.994;4.448;2023-02-28T09:08:43;3.44;;;3.43;;
71290;SDS011;59073;51.994;4.448;2023-02-28T09:11:09;3.94;;;3.92;;
71290;SDS011;59073;51.994;4.448;2023-02-28T09:13:36;4.22;;;4.22;;
71290;SDS011;59073;51.994;4.448;2023-02-28T09:16:02;3.47;;;3.47;;
71290;SDS011;59073;51.994;4.448;2023-02-28T09:18:29;3.57;;;3.57;;
71290;SDS011;59073;51.994;4.448;2023-02-28T09:20:55;3.91;;;3.91;;
71290;SDS011;59073;51.994;4.448;2023-02-28T09:23:23;3.92;;;3.92;;
71290;SDS011;59073;51.994;4.448;2023-02-28T09:25:50;3.58;;;3.58;;
71290;SDS011;59073;51.994;4.448;2023-02-28T09:28:18;3.25;;;3.25;;
71290;SDS011;59073;51.994;4.448;2023-02-28T09:30:44;3.55;;;3.55;;
71290;SDS011;59073;51.994;4.448;2023-02-28T09:33:12;4.07;;;4.07;;
71290;SDS011;59073;51.994;4.448;2023-02-28T09:35:38;3.69;;;3.69;;
71290;SDS011;59073;51.994;4.448;2023-02-28T09:38:04;3.77;;;3.76;;
71290;SDS011;59073;51.994;4.448;2023-02-28T09:40:30;3.62;;;3.62;;
71290;SDS011;59073;51.994;4.448;2023-02-28T09:42:57;3.36;;;3.36;;
71290;SDS011;59073;51.994;4.448;2023-02-28T09:45:27;3.56;;;3.56;;
71290;SDS011;59073;51.994;4.448;2023-02-28T09:48:10;3.88;;;3.88;;
71290;SDS011;59073;51.994;4.448;2023-02-28T09:50:50;3.40;;;3.40;;
71290;SDS011;59073;51.994;4.448;2023-02-28T09:53:26;3.46;;;3.46;;
71290;SDS011;59073;51.994;4.448;2023-02-28T09:55:59;3.81;;;3.81;;
71290;SDS011;59073;51.994;4.448;2023-02-28T09:58:47;3.73;;;3.73;;
71290;SDS011;59073;51.994;4.448;2023-02-28T10:03:56;3.98;;;3.98;;
71290;SDS011;59073;51.994;4.448;2023-02-28T10:06:42;4.04;;;4.04;;
71290;SDS011;59073;51.994;4.448;2023-02-28T10:09:18;4.05;;;4.05;;
71290;SDS011;59073;51.994;4.448;2023-02-28T10:11:53;3.93;;;3.92;;
71290;SDS011;59073;51.994;4.448;2023-02-28T10:14:26;4.25;;;4.21;;
71290;SDS011;59073;51.994;4.448;2023-02-28T10:16:55;4.03;;;3.99;;
71290;SDS011;59073;51.994;4.448;2023-02-28T10:19:32;3.66;;;3.66;;
71290;SDS011;59073;51.994;4.448;2023-02-28T10:22:11;3.97;;;3.97;;
71290;SDS011;59073;51.994;4.448;2023-02-28T10:24:59;4.13;;;4.13;;
71290;SDS011;59073;51.994;4.448;2023-02-28T10:27:42;3.96;;;3.96;;
71290;SDS011;59073;51.994;4.448;2023-02-28T10:30:09;4.19;;;4.19;;
71290;SDS011;59073;51.994;4.448;2023-02-28T10:32:37;3.69;;;3.69;;
71290;SDS011;59073;51.994;4.448;2023-02-28T10:35:15;3.53;;;3.53;;
71290;SDS011;59073;51.994;4.448;2023-02-28T10:37:43;3.57;;;3.57;;
71290;SDS011;59073;51.994;4.448;2023-02-28T10:40:25;3.08;;;3.08;;
71290;SDS011;59073;51.994;4.448;2023-02-28T10:45:22;3.23;;;3.23;;
71290;SDS011;59073;51.994;4.448;2023-02-28T10:50:33;3.44;;;3.44;;
71290;SDS011;59073;51.994;4.448;2023-02-28T11:01:16;3.30;;;3.30;;
71290;SDS011;59073;51.994;4.448;2023-02-28T11:03:53;3.25;;;3.25;;
71290;SDS011;59073;51.994;4.448;2023-02-28T11:06:19;3.09;;;3.09;;
71290;SDS011;59073;51.994;4.448;2023-02-28T11:08:53;2.90;;;2.90;;
71290;SDS011;59073;51.994;4.448;2023-02-28T11:11:21;2.64;;;2.64;;
71290;SDS011;59073;51.994;4.448;2023-02-28T11:13:51;2.72;;;2.72;;
71290;SDS011;59073;51.994;4.448;2023-02-28T11:16:21;2.76;;;2.76;;
71290;SDS011;59073;51.994;4.448;2023-02-28T11:18:57;2.92;;;2.92;;
71290;SDS011;59073;51.994;4.448;2023-02-28T11:24:01;2.94;;;2.94;;
71290;SDS011;59073;51.994;4.448;2023-02-28T11:26:39;2.84;;;2.84;;
71290;SDS011;59073;51.994;4.448;2023-02-28T11:29:11;2.91;;;2.91;;
71290;SDS011;59073;51.994;4.448;2023-02-28T11:31:42;3.00;;;3.00;;
71290;SDS011;59073;51.994;4.448;2023-02-28T11:34:41;3.15;;;3.15;;
71290;SDS011;59073;51.994;4.448;2023-02-28T11:37:00;2.82;;;2.82;;
71290;SDS011;59073;51.994;4.448;2023-02-28T11:39:30;2.59;;;2.59;;
71290;SDS011;59073;51.994;4.448;2023-02-28T11:42:06;2.86;;;2.86;;
71290;SDS011;59073;51.994;4.448;2023-02-28T11:45:01;2.42;;;2.42;;
71290;SDS011;59073;51.994;4.448;2023-02-28T11:52:55;1.90;;;1.90;;
71290;SDS011;59073;51.994;4.448;2023-02-28T11:55:42;2.14;;;2.14;;
71290;SDS011;59073;51.994;4.448;2023-02-28T12:01:09;2.23;;;2.23;;
71290;SDS011;59073;51.994;4.448;2023-02-28T12:03:56;2.19;;;2.19;;
71290;SDS011;59073;51.994;4.448;2023-02-28T12:06:38;2.42;;;2.42;;
71290;SDS011;59073;51.994;4.448;2023-02-28T12:11:52;2.37;;;2.37;;
71290;SDS011;59073;51.994;4.448;2023-02-28T12:14:25;2.41;;;2.41;;
71290;SDS011;59073;51.994;4.448;2023-02-28T12:19:45;2.46;;;2.46;;
71290;SDS011;59073;51.994;4.448;2023-02-28T12:22:41;2.36;;;2.36;;
71290;SDS011;59073;51.994;4.448;2023-02-28T12:28:16;2.53;;;2.53;;
71290;SDS011;59073;51.994;4.448;2023-02-28T12:31:01;2.54;;;2.54;;
71290;SDS011;59073;51.994;4.448;2023-02-28T12:33:35;2.36;;;2.36;;
71290;SDS011;59073;51.994;4.448;2023-02-28T12:36:11;2.32;;;2.32;;
71290;SDS011;59073;51.994;4.448;2023-02-28T12:41:31;2.31;;;2.31;;
71290;SDS011;59073;51.994;4.448;2023-02-28T12:44:14;2.56;;;2.56;;
71290;SDS011;59073;51.994;4.448;2023-02-28T12:46:50;2.49;;;2.49;;
71290;SDS011;59073;51.994;4.448;2023-02-28T12:49:21;2.67;;;2.67;;
71290;SDS011;59073;51.994;4.448;2023-02-28T12:51:55;2.47;;;2.47;;
71290;SDS011;59073;51.994;4.448;2023-02-28T12:59:39;3.49;;;3.49;;
71290;SDS011;59073;51.994;4.448;2023-02-28T13:10:39;2.15;;;2.15;;
71290;SDS011;59073;51.994;4.448;2023-02-28T13:13:14;2.18;;;2.18;;
71290;SDS011;59073;51.994;4.448;2023-02-28T13:15:53;2.49;;;2.49;;
71290;SDS011;59073;51.994;4.448;2023-02-28T13:18:35;2.41;;;2.41;;
71290;SDS011;59073;51.994;4.448;2023-02-28T13:21:05;2.31;;;2.31;;
71290;SDS011;59073;51.994;4.448;2023-02-28T13:26:06;2.35;;;2.35;;
71290;SDS011;59073;51.994;4.448;2023-02-28T13:31:15;2.51;;;2.51;;
71290;SDS011;59073;51.994;4.448;2023-02-28T13:38:46;2.30;;;2.30;;
71290;SDS011;59073;51.994;4.448;2023-02-28T13:44:02;2.48;;;2.48;;
71290;SDS011;59073;51.994;4.448;2023-02-28T13:49:24;2.78;;;2.78;;
71290;SDS011;59073;51.994;4.448;2023-02-28T13:54:50;2.51;;;2.51;;
71290;SDS011;59073;51.994;4.448;2023-02-28T13:57:32;2.45;;;2.45;;
71290;SDS011;59073;51.994;4.448;2023-02-28T14:03:08;2.55;;;2.55;;
71290;SDS011;59073;51.994;4.448;2023-02-28T14:06:07;2.73;;;2.73;;
71290;SDS011;59073;51.994;4.448;2023-02-28T14:09:00;2.57;;;2.57;;
71290;SDS011;59073;51.994;4.448;2023-02-28T14:11:36;2.62;;;2.62;;
71290;SDS011;59073;51.994;4.448;2023-02-28T14:14:04;2.61;;;2.61;;
71290;SDS011;59073;51.994;4.448;2023-02-28T14:19:14;2.82;;;2.82;;
71290;SDS011;59073;51.994;4.448;2023-02-28T14:27:15;2.72;;;2.72;;
71290;SDS011;59073;51.994;4.448;2023-02-28T14:32:59;2.79;;;2.79;;
71290;SDS011;59073;51.994;4.448;2023-02-28T14:35:50;3.04;;;3.04;;
71290;SDS011;59073;51.994;4.448;2023-02-28T14:38:27;2.82;;;2.82;;
71290;SDS011;59073;51.994;4.448;2023-02-28T14:40:57;2.53;;;2.53;;
71290;SDS011;59073;51.994;4.448;2023-02-28T14:43:29;2.79;;;2.79;;
71290;SDS011;59073;51.994;4.448;2023-02-28T14:45:59;3.01;;;3.01;;
71290;SDS011;59073;51.994;4.448;2023-02-28T14:48:27;2.81;;;2.81;;
71290;SDS011;59073;51.994;4.448;2023-02-28T14:50:55;2.86;;;2.86;;
71290;SDS011;59073;51.994;4.448;2023-02-28T14:53:24;2.63;;;2.63;;
71290;SDS011;59073;51.994;4.448;2023-02-28T14:55:54;2.48;;;2.48;;
71290;SDS011;59073;51.994;4.448;2023-02-28T15:00:49;2.57;;;2.57;;
71290;SDS011;59073;51.994;4.448;2023-02-28T15:03:19;2.76;;;2.76;;
71290;SDS011;59073;51.994;4.448;2023-02-28T15:05:54;2.41;;;2.41;;
71290;SDS011;59073;51.994;4.448;2023-02-28T15:08:25;2.34;;;2.34;;
71290;SDS011;59073;51.994;4.448;2023-02-28T15:10:55;2.39;;;2.39;;
71290;SDS011;59073;51.994;4.448;2023-02-28T15:13:44;2.57;;;2.57;;
71290;SDS011;59073;51.994;4.448;2023-02-28T15:16:26;2.46;;;2.46;;
71290;SDS011;59073;51.994;4.448;2023-02-28T15:18:57;2.23;;;2.23;;
71290;SDS011;59073;51.994;4.448;2023-02-28T15:21:36;2.30;;;2.30;;
71290;SDS011;59073;51.994;4.448;2023-02-28T15:24:10;2.30;;;2.30;;
71290;SDS011;59073;51.994;4.448;2023-02-28T15:26:51;2.44;;;2.44;;
71290;SDS011;59073;51.994;4.448;2023-02-28T15:29:22;2.10;;;2.10;;
71290;SDS011;59073;51.994;4.448;2023-02-28T15:31:55;2.12;;;2.12;;
71290;SDS011;59073;51.994;4.448;2023-02-28T15:34:32;1.99;;;1.99;;
71290;SDS011;59073;51.994;4.448;2023-02-28T15:39:56;2.03;;;2.03;;
71290;SDS011;59073;51.994;4.448;2023-02-28T15:42:30;2.34;;;2.34;;
71290;SDS011;59073;51.994;4.448;2023-02-28T15:44:56;2.21;;;2.21;;
71290;SDS011;59073;51.994;4.448;2023-02-28T15:47:24;2.18;;;2.18;;
71290;SDS011;59073;51.994;4.448;2023-02-28T15:52:21;2.42;;;2.42;;
71290;SDS011;59073;51.994;4.448;2023-02-28T15:54:52;2.24;;;2.24;;
71290;SDS011;59073;51.994;4.448;2023-02-28T15:57:20;2.39;;;2.39;;
71290;SDS011;59073;51.994;4.448;2023-02-28T15:59:55;2.28;;;2.28;;
71290;SDS011;59073;51.994;4.448;2023-02-28T16:02:30;2.34;;;2.34;;
71290;SDS011;59073;51.994;4.448;2023-02-28T16:07:36;2.50;;;2.50;;
71290;SDS011;59073;51.994;4.448;2023-02-28T16:10:08;2.71;;;2.71;;
71290;SDS011;59073;51.994;4.448;2023-02-28T16:12:36;2.66;;;2.66;;
71290;SDS011;59073;51.994;4.448;2023-02-28T16:17:41;3.03;;;3.03;;
71290;SDS011;59073;51.994;4.448;2023-02-28T16:20:16;2.66;;;2.66;;
71290;SDS011;59073;51.994;4.448;2023-02-28T16:22:44;2.77;;;2.77;;
71290;SDS011;59073;51.994;4.448;2023-02-28T16:25:15;2.74;;;2.74;;
71290;SDS011;59073;51.994;4.448;2023-02-28T16:27:42;2.83;;;2.83;;
71290;SDS011;59073;51.994;4.448;2023-02-28T16:30:29;3.04;;;3.04;;
71290;SDS011;59073;51.994;4.448;2023-02-28T16:32:58;2.79;;;2.79;;
71290;SDS011;59073;51.994;4.448;2023-02-28T16:35:24;2.97;;;2.97;;
71290;SDS011;59073;51.994;4.448;2023-02-28T16:37:52;3.15;;;3.15;;
71290;SDS011;59073;51.994;4.448;2023-02-28T16:40:20;2.68;;;2.68;;
71290;SDS011;59073;51.994;4.448;2023-02-28T16:42:51;2.88;;;2.88;;
71290;SDS011;59073;51.994;4.448;2023-02-28T16:45:22;2.90;;;2.90;;
71290;SDS011;59073;51.994;4.448;2023-02-28T16:47:49;2.86;;;2.86;;
71290;SDS011;59073;51.994;4.448;2023-02-28T16:50:16;2.80;;;2.80;;
71290;SDS011;59073;51.994;4.448;2023-02-28T16:52:44;2.96;;;2.96;;
71290;SDS011;59073;51.994;4.448;2023-02-28T16:55:10;3.02;;;3.02;;
71290;SDS011;59073;51.994;4.448;2023-02-28T16:57:37;2.97;;;2.97;;
71290;SDS011;59073;51.994;4.448;2023-02-28T17:00:05;3.07;;;3.07;;
71290;SDS011;59073;51.994;4.448;2023-02-28T17:02:33;2.99;;;2.99;;
71290;SDS011;59073;51.994;4.448;2023-02-28T17:04:59;3.01;;;3.01;;
71290;SDS011;59073;51.994;4.448;2023-02-28T17:07:24;3.38;;;3.38;;
71290;SDS011;59073;51.994;4.448;2023-02-28T17:09:50;3.31;;;3.31;;
71290;SDS011;59073;51.994;4.448;2023-02-28T17:12:15;3.31;;;3.31;;
71290;SDS011;59073;51.994;4.448;2023-02-28T17:14:41;3.31;;;3.31;;
71290;SDS011;59073;51.994;4.448;2023-02-28T17:17:07;3.14;;;3.14;;
71290;SDS011;59073;51.994;4.448;2023-02-28T17:19:34;3.08;;;3.08;;
71290;SDS011;59073;51.994;4.448;2023-02-28T17:22:01;3.31;;;3.31;;
71290;SDS011;59073;51.994;4.448;2023-02-28T17:24:28;3.65;;;3.65;;
71290;SDS011;59073;51.994;4.448;2023-02-28T17:26:53;3.44;;;3.44;;
71290;SDS011;59073;51.994;4.448;2023-02-28T17:29:19;3.34;;;3.34;;
71290;SDS011;59073;51.994;4.448;2023-02-28T17:31:46;3.68;;;3.68;;
71290;SDS011;59073;51.994;4.448;2023-02-28T17:34:12;3.84;;;3.84;;